createdAt,value
2018-09-13T00:01:49.169Z,1.70
2018-09-13T00:04:17.447Z,1.57
2018-09-13T00:06:46.015Z,2.27
2018-09-13T00:09:15.378Z,1.40
2018-09-13T00:11:43.688Z,1.80
2018-09-13T00:14:11.970Z,2.05
2018-09-13T00:16:40.248Z,1.50
2018-09-13T00:19:08.531Z,1.70
2018-09-13T00:21:37.301Z,1.45
2018-09-13T00:24:05.604Z,1.80
2018-09-13T00:26:33.880Z,1.77
2018-09-13T00:29:02.524Z,1.65
2018-09-13T00:31:33.152Z,1.62
2018-09-13T00:34:01.481Z,1.60
2018-09-13T00:36:29.738Z,1.50
2018-09-13T00:38:57.974Z,1.67
2018-09-13T00:41:26.199Z,2.27
2018-09-13T00:43:55.443Z,1.55
2018-09-13T00:46:25.021Z,2.10
2018-09-13T00:48:53.286Z,2.45
2018-09-13T00:51:22.562Z,1.82
2018-09-13T00:53:51.187Z,1.92
2018-09-13T00:56:20.111Z,2.15
2018-09-13T00:58:49.156Z,2.10
2018-09-13T01:01:17.442Z,2.08
2018-09-13T01:03:46.713Z,1.60
2018-09-13T01:06:15.001Z,1.42
2018-09-13T01:08:43.371Z,2.60
2018-09-13T01:11:11.660Z,1.47
2018-09-13T01:13:39.946Z,1.50
2018-09-13T01:16:09.694Z,1.32
2018-09-13T01:18:37.932Z,1.75
2018-09-13T01:21:06.541Z,1.67
2018-09-13T01:23:35.459Z,1.85
2018-09-13T01:26:03.681Z,2.45
2018-09-13T01:28:31.955Z,1.02
2018-09-13T01:31:00.272Z,1.55
2018-09-13T01:33:29.111Z,1.75
2018-09-13T01:35:57.390Z,1.77
2018-09-13T01:38:25.646Z,1.67
2018-09-13T01:40:53.918Z,1.90
2018-09-13T01:43:22.330Z,2.00
2018-09-13T01:45:51.744Z,1.57
2018-09-13T01:48:19.989Z,2.00
2018-09-13T01:50:48.339Z,1.50
2018-09-13T01:53:16.695Z,1.55
2018-09-13T01:55:45.528Z,1.12
2018-09-13T01:58:13.847Z,1.47
2018-09-13T02:00:42.158Z,1.40
2018-09-13T02:03:10.626Z,1.65
2018-09-13T02:05:38.908Z,1.67
2018-09-13T02:08:07.773Z,1.52
2018-09-13T02:10:36.039Z,1.52
2018-09-13T02:13:04.324Z,1.42
2018-09-13T02:15:32.587Z,1.75
2018-09-13T02:18:00.874Z,1.40
2018-09-13T02:20:29.147Z,1.42
2018-09-13T02:22:57.437Z,1.62
2018-09-13T02:25:25.721Z,1.50
2018-09-13T02:27:53.999Z,1.57
2018-09-13T02:30:22.279Z,1.50
2018-09-13T02:32:50.526Z,1.40
2018-09-13T02:35:18.874Z,1.10
2018-09-13T02:37:47.139Z,2.17
2018-09-13T02:40:15.433Z,2.10
2018-09-13T02:42:43.701Z,2.10
2018-09-13T02:45:11.967Z,1.75
2018-09-13T02:47:40.223Z,1.87
2018-09-13T02:50:08.554Z,1.82
2018-09-13T02:52:36.937Z,1.75
2018-09-13T02:55:05.224Z,1.85
2018-09-13T02:57:33.480Z,2.02
2018-09-13T03:00:02.556Z,1.37
2018-09-13T03:02:31.517Z,1.95
2018-09-13T03:04:59.763Z,1.42
2018-09-13T03:07:28.768Z,1.95
2018-09-13T03:09:57.632Z,2.02
2018-09-13T03:12:25.982Z,1.80
2018-09-13T03:14:54.244Z,2.30
2018-09-13T03:17:22.506Z,2.30
2018-09-13T03:19:51.442Z,1.37
2018-09-13T03:22:19.712Z,2.55
2018-09-13T03:24:47.960Z,1.50
2018-09-13T03:27:16.488Z,2.35
2018-09-13T03:29:45.520Z,1.42
2018-09-13T03:32:13.757Z,2.47
2018-09-13T03:34:42.098Z,1.75
2018-09-13T03:37:10.431Z,1.70
2018-09-13T03:39:38.711Z,1.72
2018-09-13T03:42:07.058Z,1.70
2018-09-13T03:44:35.227Z,2.10
2018-09-13T03:47:03.483Z,2.08
2018-09-13T03:49:31.764Z,1.52
2018-09-13T03:51:59.992Z,1.70
2018-09-13T03:54:28.278Z,1.62
2018-09-13T03:56:56.525Z,1.98
2018-09-13T03:59:25.333Z,2.15
2018-09-13T04:01:54.423Z,2.00
2018-09-13T04:04:23.115Z,3.22
2018-09-13T04:06:51.367Z,3.40
2018-09-13T04:09:19.655Z,2.02
2018-09-13T04:11:47.852Z,3.35
2018-09-13T04:14:16.095Z,2.17
2018-09-13T04:16:44.335Z,2.33
2018-09-13T04:19:12.623Z,2.83
2018-09-13T04:21:41.593Z,2.35
2018-09-13T04:24:09.835Z,2.30
2018-09-13T04:26:38.394Z,1.80
2018-09-13T04:29:06.654Z,2.05
2018-09-13T04:31:34.897Z,2.20
2018-09-13T04:34:03.199Z,1.95
2018-09-13T04:36:31.477Z,2.45
2018-09-13T04:38:59.733Z,2.15
2018-09-13T04:41:28.350Z,1.77
2018-09-13T04:43:56.594Z,2.20
2018-09-13T04:46:24.894Z,2.80
2018-09-13T04:48:53.206Z,2.00
2018-09-13T04:51:22.131Z,2.10
2018-09-13T04:53:50.394Z,2.15
2018-09-13T04:56:18.681Z,2.33
2018-09-13T04:58:46.964Z,2.45
2018-09-13T05:01:15.254Z,3.12
2018-09-13T05:03:43.646Z,2.77
2018-09-13T05:06:11.930Z,1.75
2018-09-13T05:08:40.174Z,2.02
2018-09-13T05:11:09.019Z,1.92
2018-09-13T05:13:37.367Z,2.17
2018-09-13T05:16:06.519Z,2.40
2018-09-13T05:18:34.797Z,1.72
2018-09-13T05:21:03.042Z,2.05
2018-09-13T05:23:31.286Z,2.10
2018-09-13T05:25:59.561Z,2.12
2018-09-13T05:28:27.826Z,1.95
2018-09-13T05:30:56.081Z,1.95
2018-09-13T05:33:24.401Z,1.60
2018-09-13T05:35:52.697Z,3.17
2018-09-13T05:38:21.690Z,4.62
2018-09-13T05:40:49.958Z,2.50
2018-09-13T05:43:19.582Z,2.60
2018-09-13T05:45:48.288Z,2.20
2018-09-13T05:48:18.142Z,1.85
2018-09-13T05:50:47.300Z,2.12
2018-09-13T05:53:15.588Z,2.27
2018-09-13T05:55:43.912Z,2.35
2018-09-13T05:58:12.203Z,2.50
2018-09-13T06:00:40.522Z,2.10
2018-09-13T06:03:12.020Z,1.80
2018-09-13T06:05:41.195Z,2.20
2018-09-13T06:08:10.794Z,2.58
2018-09-13T06:10:39.132Z,3.83
2018-09-13T06:13:08.201Z,3.20
2018-09-13T06:15:36.498Z,3.87
2018-09-13T06:18:04.741Z,3.77
2018-09-13T06:20:32.999Z,3.30
2018-09-13T06:23:01.258Z,3.42
2018-09-13T06:25:29.596Z,3.20
2018-09-13T06:27:58.734Z,3.58
2018-09-13T06:30:26.994Z,2.22
2018-09-13T06:32:55.272Z,3.22
2018-09-13T06:35:23.517Z,2.50
2018-09-13T06:37:51.817Z,2.00
2018-09-13T06:40:20.193Z,2.40
2018-09-13T06:42:49.274Z,2.95
2018-09-13T06:45:17.585Z,1.75
2018-09-13T06:47:45.865Z,2.72
2018-09-13T06:50:14.106Z,2.52
2018-09-13T06:52:42.394Z,2.87
2018-09-13T06:55:10.663Z,2.92
2018-09-13T06:57:38.932Z,2.42
2018-09-13T07:00:07.225Z,2.52
2018-09-13T07:02:35.548Z,2.83
2018-09-13T07:05:03.751Z,3.37
2018-09-13T07:07:32.558Z,2.05
2018-09-13T07:10:00.866Z,1.92
2018-09-13T07:12:29.163Z,3.05
2018-09-13T07:14:57.375Z,1.82
2018-09-13T07:17:25.694Z,1.82
2018-09-13T07:19:54.026Z,1.98
2018-09-13T07:22:23.070Z,1.80
2018-09-13T07:24:52.322Z,2.15
2018-09-13T07:27:20.596Z,1.80
2018-09-13T07:29:49.474Z,2.08
2018-09-13T07:32:18.304Z,1.98
2018-09-13T07:34:47.407Z,2.42
2018-09-13T07:37:15.768Z,1.98
2018-09-13T07:39:45.049Z,1.98
2018-09-13T07:42:13.295Z,1.60
2018-09-13T07:44:41.618Z,2.10
2018-09-13T07:47:10.932Z,1.65
2018-09-13T07:49:40.145Z,1.95
2018-09-13T07:52:08.418Z,1.75
2018-09-13T07:54:38.806Z,1.67
2018-09-13T07:57:07.697Z,1.17
2018-09-13T07:59:35.955Z,2.10
2018-09-13T08:02:08.038Z,1.87
2018-09-13T08:04:36.319Z,1.40
2018-09-13T08:07:04.597Z,1.25
2018-09-13T08:09:33.424Z,1.22
2018-09-13T08:12:01.768Z,2.47
2018-09-13T08:14:30.592Z,1.37
2018-09-13T08:17:01.506Z,1.42
2018-09-13T08:19:29.779Z,1.82
2018-09-13T08:21:58.093Z,1.50
2018-09-13T08:24:26.575Z,1.55
2018-09-13T08:26:54.893Z,1.57
2018-09-13T08:29:23.925Z,1.30
2018-09-13T08:31:52.191Z,1.72
2018-09-13T08:34:23.629Z,2.00
2018-09-13T08:36:53.791Z,1.22
2018-09-13T08:39:27.580Z,1.40
2018-09-13T08:41:58.667Z,1.87
2018-09-13T08:44:30.537Z,1.47
2018-09-13T08:47:13.736Z,1.50
2018-09-13T08:49:55.878Z,2.12
2018-09-13T08:52:26.541Z,1.72
2018-09-13T08:54:55.083Z,1.45
2018-09-13T08:57:24.761Z,1.52
2018-09-13T08:59:54.121Z,1.50
2018-09-13T09:02:23.117Z,1.87
2018-09-13T09:05:04.259Z,1.75
2018-09-13T09:07:37.873Z,1.35
2018-09-13T09:10:17.468Z,1.92
2018-09-13T09:12:45.983Z,2.52
2018-09-13T09:15:20.563Z,2.50
2018-09-13T09:18:05.049Z,2.45
2018-09-13T09:20:44.239Z,2.87
2018-09-13T09:23:15.327Z,1.90
2018-09-13T09:27:20.406Z,2.92
2018-09-13T09:30:47.004Z,2.40
2018-09-13T09:33:37.805Z,2.17
2018-09-13T09:36:11.460Z,2.70
2018-09-13T09:38:40.920Z,2.40
2018-09-13T09:41:10.643Z,2.90
2018-09-13T09:44:02.252Z,2.80
2018-09-13T09:46:31.163Z,2.90
2018-09-13T09:49:00.131Z,2.72
2018-09-13T09:51:28.426Z,2.58
2018-09-13T09:53:56.767Z,2.60
2018-09-13T09:56:26.958Z,2.62
2018-09-13T09:58:55.318Z,2.85
2018-09-13T10:01:29.588Z,3.08
2018-09-13T10:03:58.936Z,2.92
2018-09-13T10:06:27.238Z,2.65
2018-09-13T10:08:56.963Z,1.87
2018-09-13T10:11:25.327Z,1.47
2018-09-13T10:13:53.649Z,2.42
2018-09-13T10:16:27.230Z,3.00
2018-09-13T10:19:00.902Z,2.98
2018-09-13T10:21:36.619Z,2.22
2018-09-13T10:24:10.307Z,3.37
2018-09-13T10:26:47.612Z,2.75
2018-09-13T10:31:22.443Z,2.25
2018-09-13T10:33:57.810Z,2.35
2018-09-13T10:36:31.478Z,2.33
2018-09-13T10:39:05.053Z,2.70
2018-09-13T10:41:38.879Z,1.40
2018-09-13T10:44:14.126Z,2.02
2018-09-13T10:46:42.422Z,2.47
2018-09-13T10:49:16.848Z,1.85
2018-09-13T10:51:52.360Z,2.72
2018-09-13T10:54:25.324Z,1.60
2018-09-13T10:56:53.500Z,1.77
2018-09-13T10:59:22.606Z,1.70
2018-09-13T11:01:51.500Z,1.47
2018-09-13T11:04:20.803Z,1.80
2018-09-13T11:06:49.033Z,1.70
2018-09-13T11:09:20.246Z,2.27
2018-09-13T11:11:49.382Z,2.22
2018-09-13T11:14:22.745Z,1.80
2018-09-13T11:16:55.069Z,1.50
2018-09-13T11:19:23.447Z,1.15
2018-09-13T11:21:57.102Z,1.60
2018-09-13T11:24:40.413Z,1.27
2018-09-13T11:27:16.118Z,1.75
2018-09-13T11:29:46.364Z,1.87
2018-09-13T11:32:18.687Z,1.40
2018-09-13T11:34:48.754Z,1.57
2018-09-13T11:37:18.608Z,1.62
2018-09-13T11:40:09.724Z,1.87
2018-09-13T11:42:41.013Z,1.60
2018-09-13T11:45:13.764Z,1.65
2018-09-13T11:47:45.636Z,2.10
2018-09-13T11:50:22.405Z,2.20
2018-09-13T11:52:58.124Z,2.08
2018-09-13T11:55:27.524Z,2.10
2018-09-13T12:00:38.335Z,1.72
2018-09-13T12:03:09.589Z,2.02
2018-09-13T12:05:56.466Z,1.77
2018-09-13T12:08:28.014Z,1.70
2018-09-13T12:16:04.809Z,2.22
2018-09-13T12:19:10.417Z,2.00
2018-09-13T12:27:19.334Z,1.82
2018-09-13T12:33:05.985Z,1.87
2018-09-13T12:35:35.739Z,2.02
2018-09-13T12:38:16.734Z,2.02
2018-09-13T12:40:50.055Z,1.98
2018-09-13T12:43:27.672Z,1.90
2018-09-13T12:45:59.950Z,1.62
2018-09-13T12:51:30.004Z,1.55
2018-09-13T12:54:04.895Z,2.10
2018-09-13T12:56:37.811Z,2.45
2018-09-13T13:02:17.074Z,1.25
2018-09-13T13:04:48.249Z,2.08
2018-09-13T13:07:16.561Z,2.40
2018-09-13T13:09:45.112Z,1.52
2018-09-13T13:12:13.359Z,1.82
2018-09-13T13:14:41.606Z,2.55
2018-09-13T13:17:09.858Z,2.12
2018-09-13T13:19:38.387Z,2.12
2018-09-13T13:22:06.656Z,1.92
2018-09-13T13:24:34.965Z,2.15
2018-09-13T13:27:03.598Z,1.75
2018-09-13T13:29:31.819Z,1.85
2018-09-13T13:32:00.077Z,1.85
2018-09-13T13:34:28.316Z,1.57
2018-09-13T13:36:56.564Z,2.35
2018-09-13T13:39:24.847Z,1.92
2018-09-13T13:41:53.105Z,1.95
2018-09-13T13:44:21.339Z,1.75
2018-09-13T13:46:49.883Z,1.98
2018-09-13T13:49:18.124Z,1.82
2018-09-13T13:51:46.387Z,1.35
2018-09-13T13:54:14.645Z,2.00
2018-09-13T13:56:43.571Z,2.12
2018-09-13T13:59:11.833Z,1.55
2018-09-13T14:01:40.094Z,2.22
2018-09-13T14:04:08.899Z,1.50
2018-09-13T14:06:37.139Z,1.67
2018-09-13T14:09:09.446Z,1.85
2018-09-13T14:11:37.735Z,1.70
2018-09-13T14:14:06.002Z,1.62
2018-09-13T14:16:34.302Z,1.50
2018-09-13T14:19:02.553Z,1.80
2018-09-13T14:21:30.894Z,1.62
2018-09-13T14:23:59.168Z,2.12
2018-09-13T14:26:27.546Z,1.62
2018-09-13T14:28:55.857Z,1.47
2018-09-13T14:31:24.448Z,1.92
2018-09-13T14:33:52.723Z,1.60
2018-09-13T14:36:21.114Z,1.40
2018-09-13T14:38:49.694Z,1.52
2018-09-13T14:41:18.073Z,1.50
2018-09-13T14:43:46.318Z,1.50
2018-09-13T14:46:14.676Z,1.47
2018-09-13T14:48:43.613Z,1.50
2018-09-13T14:51:11.883Z,1.82
2018-09-13T14:53:41.401Z,1.87
2018-09-13T14:56:09.677Z,1.10
2018-09-13T14:58:37.930Z,1.65
2018-09-13T15:01:07.637Z,1.62
2018-09-13T15:03:35.940Z,1.75
2018-09-13T15:06:04.299Z,2.45
2018-09-13T15:08:32.551Z,1.67
2018-09-13T15:11:00.846Z,2.50
2018-09-13T15:13:29.160Z,2.30
2018-09-13T15:15:57.910Z,1.82
2018-09-13T15:18:26.176Z,1.60
2018-09-13T15:20:54.482Z,1.72
2018-09-13T15:23:22.734Z,1.30
2018-09-13T15:25:51.941Z,1.62
2018-09-13T15:28:20.181Z,1.77
2018-09-13T15:30:48.904Z,1.55
2018-09-13T15:33:17.186Z,1.32
2018-09-13T15:35:45.446Z,2.17
2018-09-13T15:38:13.692Z,1.17
2018-09-13T15:40:41.947Z,1.37
2018-09-13T15:43:10.454Z,1.60
2018-09-13T15:45:38.914Z,1.50
2018-09-13T15:48:07.490Z,1.45
2018-09-13T15:50:35.759Z,1.87
2018-09-13T15:53:04.426Z,1.30
2018-09-13T15:55:32.674Z,1.20
2018-09-13T15:58:00.956Z,1.70
2018-09-13T16:00:29.209Z,1.57
2018-09-13T16:02:57.493Z,1.42
2018-09-13T16:05:25.775Z,1.80
2018-09-13T16:07:54.053Z,1.47
2018-09-13T16:10:22.556Z,1.77
2018-09-13T16:12:50.918Z,1.30
2018-09-13T16:15:19.813Z,1.72
2018-09-13T16:17:48.054Z,1.50
2018-09-13T16:20:16.284Z,1.65
2018-09-13T16:22:44.555Z,1.60
2018-09-13T16:25:12.814Z,1.17
2018-09-13T16:27:41.075Z,2.02
2018-09-13T16:30:09.398Z,1.80
2018-09-13T16:32:37.664Z,1.60
2018-09-13T16:35:06.555Z,1.75
2018-09-13T16:37:40.086Z,1.77
2018-09-13T16:40:14.150Z,1.87
2018-09-13T16:42:52.980Z,1.90
2018-09-13T16:45:22.245Z,1.80
2018-09-13T16:47:57.256Z,1.50
2018-09-13T16:50:25.537Z,1.52
2018-09-13T16:52:53.833Z,1.75
2018-09-13T16:55:22.217Z,2.45
2018-09-13T16:57:50.598Z,2.17
2018-09-13T17:00:20.251Z,2.27
2018-09-13T17:02:48.579Z,2.42
2018-09-13T17:05:16.838Z,2.00
2018-09-13T17:07:45.304Z,1.70
2018-09-13T17:10:13.528Z,1.82
2018-09-13T17:12:41.904Z,1.57
2018-09-13T17:15:10.167Z,1.70
2018-09-13T17:17:38.633Z,1.95
2018-09-13T17:20:06.964Z,1.35
2018-09-13T17:22:35.218Z,1.90
2018-09-13T17:25:03.502Z,1.90
2018-09-13T17:27:31.822Z,2.42
2018-09-13T17:30:00.090Z,2.35
2018-09-13T17:32:28.391Z,1.98
2018-09-13T17:34:56.638Z,2.45
2018-09-13T17:37:24.928Z,1.85
2018-09-13T17:39:53.267Z,2.50
2018-09-13T17:42:21.549Z,2.20
2018-09-13T17:44:49.806Z,2.10
2018-09-13T17:47:18.091Z,1.92
2018-09-13T17:49:46.382Z,1.70
2018-09-13T17:52:14.645Z,1.92
2018-09-13T17:54:43.098Z,2.20
2018-09-13T17:57:11.458Z,1.80
2018-09-13T17:59:40.602Z,1.90
2018-09-13T18:02:09.270Z,2.33
2018-09-13T18:04:38.200Z,2.30
2018-09-13T18:07:06.505Z,2.12
2018-09-13T18:09:36.449Z,2.12
2018-09-13T18:12:04.702Z,2.00
2018-09-13T18:14:32.963Z,2.15
2018-09-13T18:17:01.219Z,2.08
2018-09-13T18:19:29.720Z,2.00
2018-09-13T18:21:57.986Z,1.90
2018-09-13T18:24:26.638Z,2.27
2018-09-13T18:26:54.893Z,2.00
2018-09-13T18:29:23.167Z,1.90
2018-09-13T18:31:51.472Z,1.80
2018-09-13T18:34:19.828Z,2.10
2018-09-13T18:36:48.099Z,2.52
2018-09-13T18:39:16.353Z,2.52
2018-09-13T18:41:44.633Z,2.37
2018-09-13T18:44:13.750Z,1.82
2018-09-13T18:46:42.030Z,2.42
2018-09-13T18:49:10.291Z,2.08
2018-09-13T18:51:38.581Z,2.40
2018-09-13T18:54:09.639Z,2.95
2018-09-13T18:56:38.155Z,2.37
2018-09-13T18:59:06.411Z,2.15
2018-09-13T19:01:34.662Z,2.30
2018-09-13T19:04:03.002Z,1.70
2018-09-13T19:06:32.155Z,2.35
2018-09-13T19:09:00.414Z,2.58
2018-09-13T19:11:28.707Z,2.80
2018-09-13T19:13:57.006Z,2.20
2018-09-13T19:16:25.671Z,1.77
2018-09-13T19:18:53.956Z,2.30
2018-09-13T19:21:22.347Z,2.20
2018-09-13T19:23:50.978Z,1.75
2018-09-13T19:26:19.905Z,1.75
2018-09-13T19:28:48.170Z,1.57
2018-09-13T19:31:17.400Z,1.72
2018-09-13T19:33:45.707Z,1.82
2018-09-13T19:36:13.983Z,1.62
2018-09-13T19:38:42.356Z,2.10
2018-09-13T19:41:17.416Z,2.20
2018-09-13T19:43:45.723Z,1.60
2018-09-13T19:46:14.072Z,1.87
2018-09-13T19:48:43.100Z,1.57
2018-09-13T19:51:11.535Z,1.82
2018-09-13T19:53:40.269Z,2.20
2018-09-13T19:56:08.659Z,2.00
2018-09-13T19:58:37.147Z,1.90
2018-09-13T20:01:12.718Z,1.45
2018-09-13T20:03:44.043Z,1.72
2018-09-13T20:06:12.390Z,2.02
2018-09-13T20:08:40.929Z,2.27
2018-09-13T20:11:09.985Z,1.67
2018-09-13T20:13:38.283Z,1.80
2018-09-13T20:16:06.689Z,2.00
2018-09-13T20:18:34.995Z,1.95
2018-09-13T20:21:03.619Z,1.65
2018-09-13T20:23:32.063Z,1.87
2018-09-13T20:26:00.343Z,2.50
2018-09-13T20:28:28.759Z,2.33
2018-09-13T20:30:59.249Z,2.02
2018-09-13T20:33:30.434Z,2.20
2018-09-13T20:36:01.279Z,2.45
2018-09-13T20:38:32.657Z,3.50
2018-09-13T20:41:03.319Z,4.30
2018-09-13T20:43:34.609Z,2.90
2018-09-13T20:46:05.100Z,2.52
2018-09-13T20:48:34.580Z,2.52
2018-09-13T20:51:05.787Z,2.42
2018-09-13T20:53:37.072Z,3.02
2018-09-13T20:56:08.271Z,2.58
2018-09-13T20:58:38.654Z,2.62
2018-09-13T21:01:06.971Z,2.60
2018-09-13T21:03:35.323Z,3.55
2018-09-13T21:06:03.657Z,2.87
2018-09-13T21:08:31.988Z,2.47
2018-09-13T21:11:01.394Z,2.30
2018-09-13T21:13:29.671Z,2.27
2018-09-13T21:15:58.141Z,2.20
2018-09-13T21:18:26.656Z,2.27
2018-09-13T21:20:55.055Z,2.20
2018-09-13T21:23:23.579Z,1.72
2018-09-13T21:25:51.940Z,2.58
2018-09-13T21:28:20.306Z,1.65
2018-09-13T21:30:48.684Z,1.90
2018-09-13T21:33:17.278Z,1.55
2018-09-13T21:35:45.559Z,2.02
2018-09-13T21:38:13.955Z,2.27
2018-09-13T21:40:43.251Z,2.55
2018-09-13T21:43:11.585Z,2.85
2018-09-13T21:45:40.297Z,2.42
2018-09-13T21:48:09.191Z,2.52
2018-09-13T21:50:37.458Z,2.60
2018-09-13T21:53:05.714Z,3.00
2018-09-13T21:55:34.541Z,3.05
2018-09-13T21:58:02.927Z,2.58
2018-09-13T22:00:31.265Z,2.80
2018-09-13T22:02:59.930Z,3.08
2018-09-13T22:05:28.216Z,3.15
2018-09-13T22:07:56.584Z,2.42
2018-09-13T22:10:25.246Z,2.60
2018-09-13T22:12:53.538Z,3.20
2018-09-13T22:15:21.959Z,2.92
2018-09-13T22:17:51.338Z,2.60
2018-09-13T22:20:19.603Z,3.02
2018-09-13T22:22:48.407Z,2.92
2018-09-13T22:25:16.682Z,2.90
2018-09-13T22:27:44.957Z,3.15
2018-09-13T22:30:13.986Z,2.40
2018-09-13T22:32:42.591Z,2.10
2018-09-13T22:35:10.833Z,2.70
2018-09-13T22:37:39.093Z,3.22
2018-09-13T22:40:08.242Z,3.15
2018-09-13T22:42:36.499Z,3.05
2018-09-13T22:45:05.149Z,3.15
2018-09-13T22:47:33.895Z,2.85
2018-09-13T22:50:02.148Z,2.98
2018-09-13T22:52:30.418Z,2.45
2018-09-13T22:54:58.672Z,2.47
2018-09-13T22:57:26.998Z,3.12
2018-09-13T22:59:55.207Z,2.60
2018-09-13T23:02:23.449Z,2.75
2018-09-13T23:04:51.705Z,2.60
2018-09-13T23:07:20.167Z,3.33
2018-09-13T23:09:48.779Z,2.83
2018-09-13T23:12:17.025Z,2.85
2018-09-13T23:14:45.257Z,2.87
2018-09-13T23:17:13.523Z,2.77
2018-09-13T23:19:41.807Z,2.47
2018-09-13T23:22:11.147Z,3.33
2018-09-13T23:24:39.379Z,3.27
2018-09-13T23:27:09.590Z,2.80
2018-09-13T23:29:40.348Z,2.83
2018-09-13T23:32:08.612Z,3.00
2018-09-13T23:34:36.862Z,3.15
2018-09-13T23:37:05.544Z,3.40
2018-09-13T23:39:33.939Z,3.25
2018-09-13T23:42:02.043Z,3.20
2018-09-13T23:44:30.374Z,4.22
2018-09-13T23:46:58.605Z,4.35
2018-09-13T23:49:27.732Z,4.33
2018-09-13T23:51:56.003Z,3.85
2018-09-13T23:54:24.237Z,4.45
2018-09-13T23:56:52.479Z,4.25
2018-09-13T23:59:21.271Z,4.12
